Time;durP1;ratioP1;P1;durP2;ratioP2;P2;SDS_P1;SDS_P2;PMS_P1;PMS_P2;Temp;Humidity;BMP_temperature;BMP_pressure;BME280_temperature;BME280_humidity;BME280_pressure;Samples;Min_cycle;Max_cycle;Signal;HPM_P1;HPM_P2
2024/03/04 00:00:36;;;;;;;;;;;5.20;99.90;;;;;;5010230;28;20121;-66
2024/03/04 00:03:02;;;;;;;2.75;1.90;;;5.30;99.90;;;;;;4994819;28;20000;-65
2024/03/04 00:05:28;;;;;;;4.70;2.67;;;5.30;99.90;;;;;;5006473;28;20065;-65
2024/03/04 00:07:54;;;;;;;3.77;2.63;;;5.30;99.90;;;;;;5010344;28;20545;-66
2024/03/04 00:10:20;;;;;;;2.70;2.30;;;5.30;99.90;;;;;;5009945;28;20481;-66
2024/03/04 00:12:46;;;;;;;4.13;3.08;;;5.30;99.90;;;;;;5010001;28;20040;-66
2024/03/04 00:15:13;;;;;;;4.75;2.60;;;5.30;99.90;;;;;;5009951;28;20192;-66
2024/03/04 00:17:40;;;;;;;3.88;2.85;;;5.30;99.90;;;;;;4991974;28;20039;-65
2024/03/04 00:20:09;;;;;;;7.07;4.03;;;5.30;99.90;;;;;;4990433;28;20524;-66
2024/03/04 00:22:35;;;;;;;7.32;4.00;;;5.40;99.90;;;;;;4988678;28;20026;-67
2024/03/04 00:25:00;;;;;;;5.88;4.20;;;5.30;99.90;;;;;;4999143;28;20816;-66
2024/03/04 00:27:26;;;;;;;6.67;4.17;;;5.40;99.90;;;;;;5009104;28;20469;-66
2024/03/04 00:29:52;;;;;;;10.07;4.80;;;5.40;99.90;;;;;;5006400;28;20030;-67
2024/03/04 00:32:18;;;;;;;8.63;3.80;;;5.40;99.90;;;;;;5009370;28;20030;-67
2024/03/04 00:34:43;;;;;;;9.67;3.30;;;5.40;99.90;;;;;;5005836;28;20037;-65
2024/03/04 00:37:10;;;;;;;11.03;5.77;;;5.40;99.90;;;;;;5009350;28;20036;-68
2024/03/04 00:39:39;;;;;;;8.15;4.28;;;5.40;99.90;;;;;;5009341;28;20042;-66
2024/03/04 00:42:06;;;;;;;4.75;3.38;;;5.40;99.90;;;;;;5009162;28;20404;-66
2024/03/04 00:44:32;;;;;;;5.90;3.50;;;5.30;99.90;;;;;;5009106;28;20034;-66
2024/03/04 00:46:57;;;;;;;7.73;4.20;;;5.40;99.90;;;;;;5009410;28;20022;-66
2024/03/04 00:49:23;;;;;;;8.47;4.50;;;5.40;99.90;;;;;;5008831;28;20289;-67
2024/03/04 00:51:49;;;;;;;7.53;4.80;;;5.40;99.90;;;;;;5009309;28;20034;-66
2024/03/04 00:54:15;;;;;;;6.15;4.20;;;5.40;99.90;;;;;;4994560;28;20041;-67
2024/03/04 00:56:40;;;;;;;5.80;4.43;;;5.40;99.90;;;;;;5009407;28;20065;-65
2024/03/04 00:59:07;;;;;;;6.07;4.17;;;5.40;99.90;;;;;;5008851;28;20041;-66
2024/03/04 01:01:33;;;;;;;8.57;4.63;;;5.50;99.90;;;;;;5006237;28;20030;-67
2024/03/04 01:03:59;;;;;;;11.38;5.00;;;5.50;99.90;;;;;;4989654;28;20406;-66
2024/03/04 01:06:27;;;;;;;9.00;5.60;;;5.50;99.90;;;;;;5007997;28;20026;-66
2024/03/04 01:08:53;;;;;;;7.32;4.38;;;5.50;99.90;;;;;;5008687;28;20034;-66
2024/03/04 01:11:19;;;;;;;5.90;4.30;;;5.40;99.90;;;;;;5009314;28;20117;-65
2024/03/04 01:13:44;;;;;;;10.10;4.83;;;5.40;99.90;;;;;;5009135;28;20045;-67
2024/03/04 01:16:10;;;;;;;5.60;4.50;;;5.50;99.90;;;;;;5008363;28;20029;-66
2024/03/04 01:18:36;;;;;;;7.47;5.07;;;5.50;99.90;;;;;;5008557;28;20034;-67
2024/03/04 01:21:03;;;;;;;6.78;4.95;;;5.50;99.90;;;;;;4990563;28;20104;-66
2024/03/04 01:23:29;;;;;;;13.75;5.50;;;5.50;99.90;;;;;;5008874;28;20026;-66
2024/03/04 01:25:54;;;;;;;11.18;5.55;;;5.50;99.90;;;;;;5022298;28;20037;-65
2024/03/04 01:28:22;;;;;;;6.95;4.82;;;5.50;99.90;;;;;;5028658;28;20029;-66
2024/03/04 01:30:49;;;;;;;8.00;5.07;;;5.40;99.90;;;;;;5011856;28;20033;-65
2024/03/04 01:33:15;;;;;;;6.20;4.90;;;5.50;99.90;;;;;;4991591;28;20036;-65
2024/03/04 01:35:41;;;;;;;11.35;5.25;;;5.50;99.90;;;;;;5008804;28;20457;-66
2024/03/04 01:38:06;;;;;;;7.80;5.32;;;5.50;99.90;;;;;;5008401;28;20100;-66
2024/03/04 01:40:32;;;;;;;8.93;5.40;;;5.50;99.90;;;;;;4992602;28;20041;-66
2024/03/04 01:42:58;;;;;;;8.57;6.23;;;5.60;99.90;;;;;;4988705;28;20398;-71
2024/03/04 01:45:25;;;;;;;9.53;6.13;;;5.60;99.90;;;;;;4998147;28;20033;-71
2024/03/04 01:47:56;;;;;;;8.10;6.20;;;5.60;99.90;;;;;;5008393;28;20026;-68
2024/03/04 01:50:29;;;;;;;8.02;5.47;;;5.60;99.90;;;;;;5007961;28;20057;-69
2024/03/04 01:52:57;;;;;;;8.07;5.63;;;5.60;99.90;;;;;;5002270;28;20046;-68
2024/03/04 01:55:23;;;;;;;10.65;5.40;;;5.60;99.90;;;;;;5005662;28;20337;-66
2024/03/04 01:57:50;;;;;;;10.27;5.28;;;5.60;99.90;;;;;;5027778;28;20030;-66
2024/03/04 02:00:19;;;;;;;9.60;5.88;;;5.60;99.90;;;;;;5007144;28;20050;-67
2024/03/04 02:02:44;;;;;;;9.40;5.63;;;5.60;99.90;;;;;;5001262;28;20116;-65
2024/03/04 02:05:11;;;;;;;10.57;5.90;;;5.50;99.90;;;;;;5007065;28;20112;-67
2024/03/04 02:07:38;;;;;;;9.15;5.85;;;5.60;99.90;;;;;;5007733;28;20030;-65
2024/03/04 02:10:05;;;;;;;9.80;6.43;;;5.60;99.90;;;;;;5007675;28;20133;-66
2024/03/04 02:12:32;;;;;;;17.85;5.70;;;5.60;99.90;;;;;;5008003;28;20034;-66
2024/03/04 02:14:59;;;;;;;11.68;6.57;;;5.60;99.90;;;;;;5007563;28;20030;-65
2024/03/04 02:17:27;;;;;;;12.50;6.50;;;5.60;99.90;;;;;;5006687;28;20033;-66
2024/03/04 02:19:55;;;;;;;13.10;6.03;;;5.70;99.90;;;;;;5008209;28;20052;-71
2024/03/04 02:22:29;;;;;;;7.55;5.20;;;5.60;99.90;;;;;;5008343;28;20025;-68
2024/03/04 02:24:55;;;;;;;8.32;5.22;;;5.60;99.90;;;;;;4990084;28;20038;-70
2024/03/04 02:27:21;;;;;;;6.18;4.43;;;5.60;99.90;;;;;;5008601;28;20476;-70
2024/03/04 02:29:48;;;;;;;7.55;4.95;;;5.60;99.90;;;;;;5000952;28;20030;-70
2024/03/04 02:32:17;;;;;;;10.50;5.95;;;5.60;99.90;;;;;;4989217;28;20038;-68
2024/03/04 02:34:49;;;;;;;10.10;7.03;;;5.60;99.90;;;;;;4989815;28;20045;-66
2024/03/04 02:37:15;;;;;;;7.25;5.10;;;5.60;99.90;;;;;;5008202;28;20030;-65
2024/03/04 02:39:42;;;;;;;6.00;4.43;;;5.60;99.90;;;;;;5007425;28;20508;-66
2024/03/04 02:42:07;;;;;;;;;;;5.70;99.90;;;;;;5008414;28;20025;-65
2024/03/04 02:44:34;;;;;;;8.32;5.18;;;5.70;99.90;;;;;;5006371;28;20744;-66
2024/03/04 02:47:00;;;;;;;7.10;4.90;;;5.60;99.90;;;;;;5007702;28;20419;-66
2024/03/04 02:49:26;;;;;;;6.32;4.60;;;5.60;99.90;;;;;;5008295;28;20022;-66
2024/03/04 02:51:52;;;;;;;7.35;4.43;;;5.70;99.90;;;;;;5008448;28;20034;-66
2024/03/04 02:54:19;;;;;;;7.27;4.93;;;5.60;99.90;;;;;;4990402;28;20022;-66
2024/03/04 02:56:45;;;;;;;5.35;4.50;;;5.70;99.90;;;;;;4988448;28;20041;-67
2024/03/04 02:59:10;;;;;;;7.70;4.90;;;5.60;99.90;;;;;;4988476;28;20104;-67
2024/03/04 03:01:36;;;;;;;10.87;4.70;;;5.70;99.90;;;;;;4987869;28;20607;-66
2024/03/04 03:04:02;;;;;;;6.95;4.82;;;5.70;99.90;;;;;;4987981;28;20058;-67
2024/03/04 03:06:28;;;;;;;8.30;5.50;;;5.70;99.90;;;;;;4987693;28;20070;-67
2024/03/04 03:08:57;;;;;;;6.40;4.85;;;5.60;99.90;;;;;;4987884;28;20577;-66
2024/03/04 03:11:23;;;;;;;5.95;4.18;;;5.70;99.90;;;;;;4986771;28;20045;-66
2024/03/04 03:13:49;;;;;;;6.07;4.53;;;5.70;99.90;;;;;;4987869;28;20026;-65
2024/03/04 03:16:18;;;;;;;5.18;4.40;;;5.70;99.90;;;;;;4988217;28;20027;-65
2024/03/04 03:18:44;;;;;;;7.13;4.50;;;5.70;99.90;;;;;;4988048;28;20038;-65
2024/03/04 03:21:09;;;;;;;5.97;4.83;;;5.70;99.90;;;;;;4987337;28;20034;-66
2024/03/04 03:23:36;;;;;;;7.03;4.30;;;5.70;99.90;;;;;;4987354;28;20494;-68
2024/03/04 03:26:01;;;;;;;5.22;4.10;;;5.70;99.90;;;;;;4987929;28;20545;-66
2024/03/04 03:28:27;;;;;;;7.33;4.70;;;5.70;99.90;;;;;;4988008;28;20084;-66
2024/03/04 03:30:53;;;;;;;8.98;4.57;;;5.80;99.90;;;;;;4988166;28;20034;-65
2024/03/04 03:33:19;;;;;;;7.13;4.85;;;5.70;99.90;;;;;;4987854;28;20406;-66
2024/03/04 03:35:44;;;;;;;4.33;3.87;;;5.80;99.90;;;;;;4987827;28;20062;-66
2024/03/04 03:38:10;;;;;;;5.10;4.07;;;5.80;99.90;;;;;;4987179;28;20514;-66
2024/03/04 03:40:36;;;;;;;4.80;3.90;;;5.80;99.90;;;;;;4986351;28;20030;-65
2024/03/04 03:43:02;;;;;;;5.82;3.45;;;5.80;99.90;;;;;;4989705;28;20087;-65
2024/03/04 03:45:27;;;;;;;5.53;4.00;;;5.90;99.90;;;;;;4987494;28;20117;-65
2024/03/04 03:47:53;;;;;;;5.13;3.77;;;5.80;99.90;;;;;;4987366;28;20304;-66
2024/03/04 03:50:18;;;;;;;4.40;3.30;;;5.80;99.90;;;;;;4995579;28;20042;-66
2024/03/04 03:52:44;;;;;;;5.77;3.73;;;5.80;99.90;;;;;;5007291;28;20698;-65
2024/03/04 03:55:09;;;;;;;4.07;3.50;;;5.90;99.90;;;;;;5006308;28;20061;-66
2024/03/04 03:57:35;;;;;;;5.77;3.90;;;5.90;99.90;;;;;;5005909;28;20579;-66
2024/03/04 04:00:01;;;;;;;6.13;4.00;;;5.90;99.90;;;;;;5006796;28;20061;-65
2024/03/04 04:02:26;;;;;;;7.47;4.50;;;5.80;99.90;;;;;;5006679;28;20096;-66
2024/03/04 04:04:52;;;;;;;8.40;4.40;;;5.90;99.90;;;;;;5006700;28;20030;-65
2024/03/04 04:07:18;;;;;;;4.87;4.07;;;5.90;99.90;;;;;;5007337;28;20037;-66
2024/03/04 04:09:44;;;;;;;6.70;4.63;;;5.90;99.90;;;;;;5006770;28;20073;-65
2024/03/04 04:12:09;;;;;;;6.90;4.10;;;6.00;99.90;;;;;;5006007;28;20038;-66
2024/03/04 04:14:35;;;;;;;5.97;4.60;;;5.90;99.90;;;;;;5005457;28;20030;-65
2024/03/04 04:17:01;;;;;;;6.17;4.23;;;5.90;99.90;;;;;;5006344;28;20441;-65
2024/03/04 04:19:26;;;;;;;9.27;4.83;;;5.90;99.90;;;;;;5006709;28;20478;-67
2024/03/04 04:21:52;;;;;;;5.87;3.77;;;5.90;99.90;;;;;;5006581;28;20153;-65
2024/03/04 04:24:17;;;;;;;6.63;4.40;;;5.90;99.90;;;;;;5008454;28;20061;-66
2024/03/04 04:26:43;;;;;;;7.33;5.27;;;5.90;99.90;;;;;;5010631;28;20037;-66
2024/03/04 04:29:08;;;;;;;8.17;5.20;;;5.90;99.90;;;;;;5010077;28;20036;-68
2024/03/04 04:31:34;;;;;;;5.13;4.47;;;5.90;99.90;;;;;;5009305;28;20022;-65
2024/03/04 04:34:00;;;;;;;7.17;4.73;;;5.90;99.90;;;;;;5008390;28;20555;-66
2024/03/04 04:36:26;;;;;;;8.40;4.97;;;6.00;99.90;;;;;;5009460;28;20053;-66
2024/03/04 04:38:51;;;;;;;7.80;5.18;;;6.00;99.90;;;;;;5008064;28;20045;-66
2024/03/04 04:41:17;;;;;;;8.40;4.70;;;6.00;99.90;;;;;;5010034;28;20030;-65
2024/03/04 04:43:42;;;;;;;9.77;6.17;;;5.90;99.90;;;;;;5009689;28;20065;-66
2024/03/04 04:46:08;;;;;;;8.27;5.60;;;6.00;99.90;;;;;;5009651;28;20033;-66
2024/03/04 04:48:34;;;;;;;9.90;5.03;;;6.00;99.90;;;;;;5008986;28;20030;-65
2024/03/04 04:51:00;;;;;;;7.15;5.07;;;6.00;99.90;;;;;;5009434;28;20108;-64
2024/03/04 04:53:26;;;;;;;11.63;6.22;;;6.00;99.90;;;;;;4999466;28;20085;-66
2024/03/04 04:55:51;;;;;;;11.23;5.77;;;6.00;99.90;;;;;;4989442;28;20027;-66
2024/03/04 04:58:17;;;;;;;10.07;6.70;;;6.00;99.90;;;;;;4989829;28;20057;-66
2024/03/04 05:00:46;;;;;;;13.48;7.00;;;6.00;99.90;;;;;;4989839;28;20432;-65
2024/03/04 05:03:12;;;;;;;12.32;6.97;;;6.00;99.90;;;;;;4989771;28;20105;-65
2024/03/04 05:05:38;;;;;;;12.77;8.30;;;6.00;99.90;;;;;;4989756;28;20582;-66
2024/03/04 05:08:05;;;;;;;13.57;8.30;;;6.00;99.90;;;;;;4989983;28;20824;-65
2024/03/04 05:10:31;;;;;;;12.55;8.32;;;6.00;99.90;;;;;;4989668;28;20030;-65
2024/03/04 05:12:56;;;;;;;17.92;8.07;;;6.00;99.90;;;;;;4989726;28;20054;-65
2024/03/04 05:15:22;;;;;;;14.10;8.37;;;6.00;99.90;;;;;;4989504;28;20034;-66
2024/03/04 05:17:47;;;;;;;15.50;8.33;;;6.00;99.90;;;;;;4988895;28;20026;-65
2024/03/04 05:20:15;;;;;;;14.93;7.67;;;6.00;99.90;;;;;;4989435;28;20058;-65
2024/03/04 05:22:42;;;;;;;13.02;8.68;;;6.00;99.90;;;;;;4989538;28;20022;-66
2024/03/04 05:25:08;;;;;;;11.70;7.80;;;6.00;99.90;;;;;;4989000;28;20030;-65
2024/03/04 05:27:34;;;;;;;14.45;7.93;;;6.00;99.90;;;;;;4989728;28;20037;-65
2024/03/04 05:30:00;;;;;;;10.77;7.40;;;6.00;99.90;;;;;;4990048;28;20482;-65
2024/03/04 05:32:25;;;;;;;11.97;7.23;;;6.00;99.90;;;;;;4989334;28;20037;-65
2024/03/04 05:34:51;;;;;;;18.75;7.20;;;6.00;99.90;;;;;;4988687;28;20268;-66
2024/03/04 05:37:17;;;;;;;14.37;7.77;;;6.00;99.90;;;;;;4989913;28;20043;-65
2024/03/04 05:39:48;;;;;;;11.15;6.78;;;6.00;99.90;;;;;;4988985;28;20438;-65
2024/03/04 05:42:14;;;;;;;10.02;6.70;;;6.00;99.90;;;;;;4989255;28;20034;-66
2024/03/04 05:44:40;;;;;;;12.80;8.43;;;6.00;99.90;;;;;;4996433;28;20040;-65
2024/03/04 05:47:06;;;;;;;15.20;9.25;;;6.00;99.90;;;;;;4989362;28;20549;-65
2024/03/04 05:49:31;;;;;;;16.30;8.70;;;6.00;99.90;;;;;;4989030;28;20034;-65
2024/03/04 05:51:58;;;;;;;17.63;8.90;;;6.00;99.90;;;;;;4988924;28;20073;-65
2024/03/04 05:54:25;;;;;;;16.98;9.00;;;6.00;99.90;;;;;;5006026;28;20038;-65
2024/03/04 05:56:51;;;;;;;19.20;10.38;;;6.10;99.90;;;;;;5008313;28;20022;-65
2024/03/04 05:59:17;;;;;;;16.30;10.73;;;6.10;99.90;;;;;;5008597;28;20045;-65
2024/03/04 06:01:42;;;;;;;17.90;8.77;;;6.10;99.90;;;;;;5007521;28;20030;-65
2024/03/04 06:04:09;;;;;;;14.40;8.02;;;6.10;99.90;;;;;;4996713;28;20064;-67
2024/03/04 06:06:35;;;;;;;13.50;8.60;;;6.10;99.90;;;;;;4994987;28;20124;-68
2024/03/04 06:09:03;;;;;;;15.05;8.35;;;6.10;99.90;;;;;;4994620;28;20117;-66
2024/03/04 06:11:29;;;;;;;10.85;7.32;;;6.10;99.90;;;;;;4999713;28;20030;-66
2024/03/04 06:13:54;;;;;;;11.30;7.33;;;6.10;99.90;;;;;;4998115;28;20378;-67
2024/03/04 06:16:20;;;;;;;11.60;8.33;;;6.00;99.90;;;;;;5002686;28;20494;-67
2024/03/04 06:18:47;;;;;;;12.00;7.97;;;6.10;99.90;;;;;;5000286;28;20580;-67
2024/03/04 06:21:12;;;;;;;12.23;7.90;;;6.10;99.90;;;;;;4999617;28;21045;-66
2024/03/04 06:23:38;;;;;;;15.93;8.07;;;6.10;99.90;;;;;;4996387;28;20049;-66
2024/03/04 06:26:09;;;;;;;14.83;7.77;;;6.10;99.90;;;;;;4995240;28;20037;-66
2024/03/04 06:28:35;;;;;;;17.05;8.98;;;6.10;99.90;;;;;;4998230;28;20037;-66
2024/03/04 06:31:01;;;;;;;15.32;8.32;;;6.20;99.90;;;;;;5001489;28;20574;-65
2024/03/04 06:33:26;;;;;;;10.77;7.55;;;6.20;99.90;;;;;;5002526;28;20144;-65
2024/03/04 06:35:52;;;;;;;15.30;9.57;;;6.20;99.90;;;;;;4999257;28;20037;-66
2024/03/04 06:38:18;;;;;;;14.47;9.33;;;6.20;99.90;;;;;;5003767;28;20486;-65
2024/03/04 06:40:43;;;;;;;18.45;13.82;;;6.20;99.90;;;;;;4998608;28;20450;-68
2024/03/04 06:43:09;;;;;;;18.93;14.17;;;6.20;99.90;;;;;;4995385;28;20330;-67
2024/03/04 06:45:38;;;;;;;20.73;12.90;;;6.20;99.90;;;;;;4986705;28;20034;-67
2024/03/04 06:48:04;;;;;;;17.80;10.75;;;6.20;99.90;;;;;;4998193;28;20042;-67
2024/03/04 06:50:30;;;;;;;16.52;9.13;;;6.20;99.90;;;;;;5001694;28;20040;-67
2024/03/04 06:52:56;;;;;;;14.52;8.65;;;6.20;99.90;;;;;;4996099;28;20029;-68
2024/03/04 06:55:22;;;;;;;32.55;17.35;;;6.20;99.90;;;;;;4996020;28;20053;-68
2024/03/04 06:57:48;;;;;;;59.47;30.52;;;6.20;99.90;;;;;;4999032;28;20238;-68
2024/03/04 07:00:14;;;;;;;29.75;13.75;;;6.20;99.90;;;;;;5003059;28;20052;-68
2024/03/04 07:02:40;;;;;;;19.77;11.68;;;6.20;99.90;;;;;;5003215;28;20359;-68
2024/03/04 07:05:06;;;;;;;16.93;10.97;;;6.20;99.90;;;;;;5011304;28;20105;-67
2024/03/04 07:07:32;;;;;;;22.38;12.77;;;6.20;99.90;;;;;;4998461;28;20120;-69
2024/03/04 07:09:59;;;;;;;24.30;15.38;;;6.20;99.90;;;;;;4995570;28;20466;-70
2024/03/04 07:12:25;;;;;;;25.73;14.73;;;6.20;99.90;;;;;;4995514;28;20026;-68
2024/03/04 07:14:51;;;;;;;25.73;13.75;;;6.20;99.90;;;;;;5004927;28;20112;-69
2024/03/04 07:17:16;;;;;;;16.40;10.30;;;6.30;99.90;;;;;;5002709;28;20041;-68
2024/03/04 07:19:42;;;;;;;20.97;11.93;;;6.20;99.90;;;;;;4998825;28;20525;-72
2024/03/04 07:22:08;;;;;;;22.02;12.60;;;6.20;99.90;;;;;;4999310;28;20276;-69
2024/03/04 07:24:33;;;;;;;25.30;12.40;;;6.30;99.90;;;;;;4998259;28;20077;-67
2024/03/04 07:26:59;;;;;;;24.93;10.93;;;6.20;99.90;;;;;;5006910;28;20125;-69
2024/03/04 07:29:25;;;;;;;21.63;12.67;;;6.20;99.90;;;;;;5002037;28;20061;-70
2024/03/04 07:31:50;;;;;;;26.50;11.10;;;6.20;99.90;;;;;;5000268;28;20677;-69
2024/03/04 07:34:16;;;;;;;20.30;12.70;;;6.20;99.90;;;;;;4999735;28;20038;-68
2024/03/04 07:36:41;;;;;;;19.53;9.67;;;6.20;99.90;;;;;;5003359;28;20022;-70
2024/03/04 07:39:07;;;;;;;17.83;9.60;;;6.30;99.90;;;;;;5002014;28;20137;-68
2024/03/04 07:41:33;;;;;;;12.00;8.55;;;6.30;99.90;;;;;;4996421;28;20038;-67
2024/03/04 07:43:59;;;;;;;19.77;10.30;;;6.30;99.90;;;;;;4999265;28;20096;-76
2024/03/04 07:46:24;;;;;;;25.17;9.20;;;6.40;99.90;;;;;;4999711;28;20085;-73
2024/03/04 07:48:50;;;;;;;16.13;8.93;;;6.40;99.90;;;;;;4999488;28;20054;-69
2024/03/04 07:51:15;;;;;;;17.97;8.73;;;6.30;99.90;;;;;;4998861;28;20026;-72
2024/03/04 07:53:41;;;;;;;19.67;11.70;;;6.40;99.90;;;;;;4996410;28;20033;-75
2024/03/04 07:56:08;;;;;;;17.27;9.87;;;6.40;99.90;;;;;;4998354;28;20482;-70
2024/03/04 07:58:36;;;;;;;16.30;9.27;;;6.50;99.90;;;;;;4992414;28;20058;-66
2024/03/04 08:01:02;;;;;;;17.33;10.10;;;6.50;99.90;;;;;;4996574;28;20101;-67
2024/03/04 08:03:27;;;;;;;12.75;7.63;;;6.50;99.90;;;;;;4998750;28;20027;-66
2024/03/04 08:05:53;;;;;;;17.05;9.25;;;6.40;99.90;;;;;;5002468;28;20121;-66
2024/03/04 08:08:19;;;;;;;19.13;9.27;;;6.50;99.90;;;;;;4998642;28;20109;-66
2024/03/04 08:10:44;;;;;;;17.53;11.10;;;6.50;99.90;;;;;;5000813;28;20030;-67
2024/03/04 08:13:10;;;;;;;16.03;9.83;;;6.60;99.90;;;;;;4998336;28;20045;-68
2024/03/04 08:15:36;;;;;;;16.60;10.03;;;6.60;99.90;;;;;;5003846;28;20030;-66
2024/03/04 08:18:01;;;;;;;15.05;8.68;;;6.60;99.90;;;;;;5002977;28;20440;-69
2024/03/04 08:20:27;;;;;;;21.03;10.83;;;6.50;99.90;;;;;;5000379;28;20041;-66
2024/03/04 08:22:53;;;;;;;21.97;12.97;;;6.50;99.90;;;;;;5000276;28;20232;-69
2024/03/04 08:25:18;;;;;;;20.40;10.50;;;6.50;99.90;;;;;;4999847;28;20036;-65
2024/03/04 08:27:44;;;;;;;17.17;9.47;;;6.70;99.90;;;;;;5003443;28;20038;-71
2024/03/04 08:30:13;;;;;;;15.03;8.77;;;6.60;99.90;;;;;;5002849;28;20027;-66
2024/03/04 08:32:41;;;;;;;17.88;11.02;;;6.60;99.90;;;;;;4998329;28;20033;-66
2024/03/04 08:35:07;;;;;;;16.92;8.18;;;6.60;99.90;;;;;;4996918;28;20030;-68
2024/03/04 08:37:33;;;;;;;20.77;9.23;;;6.60;99.90;;;;;;5003650;28;20452;-69
2024/03/04 08:40:03;;;;;;;10.73;6.67;;;6.70;99.90;;;;;;4999410;28;20081;-66
2024/03/04 08:42:28;;;;;;;19.52;8.50;;;6.70;99.90;;;;;;4999266;28;20486;-70
2024/03/04 08:44:54;;;;;;;15.67;8.93;;;6.60;99.90;;;;;;5001062;28;20084;-67
2024/03/04 08:47:19;;;;;;;16.57;9.83;;;6.60;99.90;;;;;;5005579;28;20022;-69
2024/03/04 08:49:45;;;;;;;19.67;10.67;;;6.70;99.90;;;;;;5005547;28;20030;-69
2024/03/04 08:52:10;;;;;;;16.03;7.77;;;6.60;99.90;;;;;;4999736;28;20034;-70
2024/03/04 08:54:36;;;;;;;10.53;7.23;;;6.60;99.90;;;;;;5003076;28;20037;-71
2024/03/04 08:57:02;;;;;;;12.57;7.85;;;6.60;99.90;;;;;;5003889;28;20029;-75
2024/03/04 08:59:28;;;;;;;17.17;9.57;;;6.60;99.90;;;;;;4992866;28;20461;-70
2024/03/04 09:01:53;;;;;;;16.70;8.83;;;6.60;99.90;;;;;;5001640;28;20030;-69
2024/03/04 09:04:19;;;;;;;12.70;7.50;;;6.70;99.90;;;;;;5000153;28;20045;-67
2024/03/04 09:06:45;;;;;;;16.40;8.60;;;6.70;99.90;;;;;;5004562;28;20409;-70
2024/03/04 09:09:11;;;;;;;16.93;7.97;;;6.70;99.90;;;;;;5004731;28;20030;-68
2024/03/04 09:11:36;;;;;;;15.77;7.45;;;6.70;99.90;;;;;;4999654;28;20464;-66
2024/03/04 09:14:02;;;;;;;13.90;6.73;;;6.70;99.90;;;;;;5002741;28;20030;-65
2024/03/04 09:16:28;;;;;;;12.77;6.90;;;6.70;99.90;;;;;;5005112;28;20041;-66
2024/03/04 09:18:53;;;;;;;18.50;6.30;;;6.70;99.90;;;;;;5001290;28;20476;-77
2024/03/04 09:21:19;;;;;;;11.73;5.73;;;6.70;99.90;;;;;;5002825;28;20034;-73
2024/03/04 09:23:47;;;;;;;15.93;6.35;;;6.70;99.90;;;;;;4998403;28;20537;-72
2024/03/04 09:26:13;;;;;;;11.25;5.93;;;6.60;99.90;;;;;;5005911;28;20045;-73
2024/03/04 09:28:39;;;;;;;13.98;5.72;;;6.60;99.90;;;;;;4998210;28;20042;-72
2024/03/04 09:31:05;;;;;;;8.30;5.67;;;6.70;99.90;;;;;;4999255;28;20031;-71
2024/03/04 09:33:30;;;;;;;12.05;6.68;;;6.70;99.90;;;;;;5013517;28;20161;-73
2024/03/04 09:35:56;;;;;;;11.37;5.67;;;6.70;99.90;;;;;;5006449;28;20041;-67
2024/03/04 09:38:21;;;;;;;15.10;6.73;;;6.70;99.90;;;;;;5002673;28;20030;-68
2024/03/04 09:40:51;;;;;;;11.60;6.90;;;6.80;99.90;;;;;;4996703;28;20042;-68
2024/03/04 09:43:19;;;;;;;13.02;6.50;;;6.80;99.90;;;;;;5000025;28;20021;-71
2024/03/04 09:45:48;;;;;;;12.38;6.30;;;6.80;99.90;;;;;;4998526;28;20061;-67
2024/03/04 09:48:16;;;;;;;10.95;6.45;;;6.80;99.90;;;;;;5001112;28;20057;-67
2024/03/04 09:50:41;;;;;;;10.80;5.90;;;6.80;99.90;;;;;;4999215;28;20044;-66
2024/03/04 09:53:09;;;;;;;15.77;6.00;;;6.70;99.90;;;;;;5000399;28;20022;-71
2024/03/04 09:55:35;;;;;;;9.00;6.07;;;6.70;99.90;;;;;;4993824;28;20034;-68
2024/03/04 09:58:01;;;;;;;14.73;6.40;;;6.80;99.90;;;;;;4999862;28;20056;-71
2024/03/04 10:00:28;;;;;;;11.88;6.28;;;6.80;99.90;;;;;;5002508;28;20034;-68
2024/03/04 10:02:55;;;;;;;10.30;6.45;;;6.90;99.90;;;;;;4997197;28;20030;-67
2024/03/04 10:05:21;;;;;;;11.32;6.50;;;6.90;99.90;;;;;;5000721;28;20064;-69
2024/03/04 10:07:48;;;;;;;10.97;6.30;;;6.90;99.90;;;;;;5008253;28;20053;-66
2024/03/04 10:10:15;;;;;;;9.85;5.43;;;7.00;99.90;;;;;;5003229;28;20032;-65
2024/03/04 10:12:40;;;;;;;;;;;6.90;99.90;;;;;;5003390;28;20088;-70
2024/03/04 10:15:09;;;;;;;13.88;5.55;;;6.90;99.90;;;;;;5004148;28;19952;-66
2024/03/04 10:17:35;;;;;;;14.85;5.70;;;7.00;99.90;;;;;;5001485;28;20030;-70
2024/03/04 10:20:05;;;;;;;10.45;4.97;;;7.00;99.90;;;;;;4999193;28;20049;-64
2024/03/04 10:22:34;;;;;;;8.25;4.80;;;7.00;99.90;;;;;;4994516;28;20112;-72
2024/03/04 10:25:13;;;;;;;16.88;6.30;;;7.00;99.90;;;;;;5002845;28;20026;-64
2024/03/04 10:27:44;;;;;;;13.18;6.05;;;7.10;99.90;;;;;;5002716;28;20078;-72
2024/03/04 10:30:14;;;;;;;12.15;6.05;;;7.20;99.90;;;;;;5000306;28;20497;-66
2024/03/04 10:32:48;;;;;;;10.27;4.85;;;7.20;99.90;;;;;;5006234;28;20037;-65
2024/03/04 10:35:18;;;;;;;13.15;5.95;;;7.20;99.90;;;;;;4993096;28;20088;-73
2024/03/04 10:37:44;;;;;;;11.68;5.20;;;7.30;99.90;;;;;;5000056;28;20433;-67
2024/03/04 10:40:11;;;;;;;9.93;5.15;;;7.40;99.90;;;;;;4996456;28;20087;-79
2024/03/04 10:42:37;;;;;;;;;;;7.40;99.90;;;;;;5001091;28;20029;-78
2024/03/04 10:45:06;;;;;;;11.27;5.38;;;7.30;99.90;;;;;;4993170;28;20321;-75
2024/03/04 10:47:32;;;;;;;6.88;5.00;;;7.40;99.90;;;;;;5001373;28;20366;-70
2024/03/04 10:49:58;;;;;;;10.52;5.30;;;7.30;99.90;;;;;;4997506;28;20033;-66
2024/03/04 10:52:25;;;;;;;15.07;5.75;;;7.40;99.90;;;;;;4992500;28;20062;-82
2024/03/04 10:54:51;;;;;;;14.52;5.15;;;7.40;99.90;;;;;;5002021;28;20084;-82
2024/03/04 10:57:27;;;;;;;7.53;4.55;;;7.40;99.90;;;;;;4998052;28;20610;-81
2024/03/04 11:03:04;;;;;;;12.80;5.25;;;7.60;99.90;;;;;;4994541;28;20115;-78
2024/03/04 11:05:34;;;;;;;10.45;6.05;;;7.70;99.90;;;;;;4990798;28;20540;-73
2024/03/04 11:08:07;;;;;;;10.73;5.10;;;7.80;99.90;;;;;;5000457;28;20061;-80
2024/03/04 11:10:52;;;;;;;11.43;5.45;;;7.90;99.90;;;;;;4997996;28;20029;-85
2024/03/04 11:13:59;;;;;;;10.18;4.43;;;8.00;99.90;;;;;;4996638;28;20045;-65
2024/03/04 11:16:36;;;;;;;14.43;4.93;;;8.10;99.90;;;;;;4997000;28;20045;-64
2024/03/04 11:19:14;;;;;;;;;;;8.20;99.90;;;;;;5000971;28;20117;-64
2024/03/04 11:21:40;;;;;;;11.33;5.30;;;8.20;99.90;;;;;;4995566;28;19920;-65
2024/03/04 11:24:08;;;;;;;10.85;4.97;;;8.20;99.90;;;;;;4991065;28;20281;-64
2024/03/04 11:26:37;;;;;;;9.60;4.20;;;8.10;99.90;;;;;;4997649;28;20063;-66
2024/03/04 11:29:03;;;;;;;7.15;5.03;;;8.20;99.90;;;;;;4993819;28;20018;-63
2024/03/04 11:31:33;;;;;;;14.10;5.47;;;8.40;99.90;;;;;;5000503;28;20414;-64
2024/03/04 11:34:00;;;;;;;9.57;5.68;;;8.20;99.90;;;;;;5003085;28;20040;-63
2024/03/04 11:36:26;;;;;;;10.88;5.35;;;8.30;99.90;;;;;;5003466;28;20029;-66
2024/03/04 11:38:51;;;;;;;7.27;5.67;;;8.30;99.90;;;;;;5002950;28;20036;-64
2024/03/04 11:41:49;;;;;;;10.13;5.38;;;8.40;99.90;;;;;;4997488;28;20676;-64
2024/03/04 11:44:26;;;;;;;8.00;5.88;;;8.30;99.90;;;;;;4999974;28;20486;-63
2024/03/04 11:46:54;;;;;;;11.55;5.65;;;8.30;99.90;;;;;;5001691;28;20026;-64
2024/03/04 11:49:47;;;;;;;7.35;5.25;;;8.20;99.90;;;;;;5001995;28;20394;-79
2024/03/04 11:52:20;;;;;;;8.88;5.35;;;8.40;99.90;;;;;;4995964;28;20109;-79
2024/03/04 11:54:49;;;;;;;14.73;6.13;;;8.60;99.90;;;;;;5004664;28;20034;-68
2024/03/04 11:57:16;;;;;;;10.73;6.45;;;8.70;99.90;;;;;;5003710;28;20504;-73
2024/03/04 12:00:13;;;;;;;10.40;6.00;;;8.80;99.90;;;;;;4996265;28;20039;-74
2024/03/04 12:02:40;;;;;;;16.83;6.10;;;9.10;99.90;;;;;;5003465;28;20026;-77
2024/03/04 12:05:09;;;;;;;12.23;6.00;;;9.20;99.90;;;;;;5003981;28;20068;-72
2024/03/04 12:07:35;;;;;;;13.85;6.07;;;9.10;99.90;;;;;;5003601;28;20398;-70
2024/03/04 12:10:05;;;;;;;8.65;6.25;;;9.00;99.90;;;;;;5004617;28;20032;-70
2024/03/04 12:12:31;;;;;;;14.25;6.07;;;9.00;99.90;;;;;;5000760;28;20548;-64
2024/03/04 12:14:56;;;;;;;9.68;6.00;;;9.10;99.90;;;;;;4995134;28;20023;-67
2024/03/04 12:17:22;;;;;;;11.70;5.22;;;9.00;99.90;;;;;;5016902;28;20458;-67
2024/03/04 12:19:55;;;;;;;7.27;4.70;;;8.90;99.90;;;;;;5004403;28;20070;-64
2024/03/04 12:22:28;;;;;;;10.75;4.93;;;9.10;99.90;;;;;;5001591;28;20025;-67
2024/03/04 12:25:07;;;;;;;14.05;6.38;;;9.20;99.90;;;;;;5002164;28;20092;-65
2024/03/04 12:27:34;;;;;;;14.73;7.30;;;9.30;99.90;;;;;;5004729;28;20026;-65
2024/03/04 12:30:19;;;;;;;14.27;6.07;;;9.10;99.90;;;;;;5004228;28;20836;-63
2024/03/04 12:32:50;;;;;;;8.50;5.05;;;9.20;99.90;;;;;;5004664;28;20378;-65
2024/03/04 12:35:25;;;;;;;14.38;6.05;;;9.20;99.90;;;;;;5004212;28;20030;-65
2024/03/04 12:37:56;;;;;;;9.45;5.00;;;9.20;99.90;;;;;;5003305;28;20049;-64
2024/03/04 12:40:23;;;;;;;7.95;4.60;;;9.10;99.90;;;;;;5001575;28;20125;-66
2024/03/04 12:42:57;;;;;;;13.20;6.72;;;9.00;99.90;;;;;;5003565;28;20033;-67
2024/03/04 12:45:25;;;;;;;9.90;5.88;;;9.20;99.90;;;;;;5002327;28;20239;-72
2024/03/04 12:47:52;;;;;;;9.27;5.05;;;9.30;99.90;;;;;;5004161;28;20545;-71
2024/03/04 12:50:18;;;;;;;16.63;5.85;;;9.20;99.90;;;;;;5004315;28;20034;-70
2024/03/04 12:52:44;;;;;;;;;;;9.30;99.90;;;;;;5005337;28;20034;-70